Time;durP1;ratioP1;P1;durP2;ratioP2;P2;SDS_P1;SDS_P2;PMS_P1;PMS_P2;Temp;Humidity;BMP_temperature;BMP_pressure;BME280_temperature;BME280_humidity;BME280_pressure;Samples;Min_cycle;Max_cycle;Signal;HPM_P1;HPM_P2
2022/06/04 00:00:27;;;;;;;9.32;6.75;;;13.10;99.90;;;;;;4977455;28;93044;-71
2022/06/04 00:02:54;;;;;;;7.60;6.68;;;13.10;99.90;;;;;;4976222;28;92492;-71
2022/06/04 00:05:25;;;;;;;9.57;6.57;;;13.10;99.90;;;;;;4977645;28;91734;-71
2022/06/04 00:07:54;;;;;;;12.27;7.68;;;13.00;99.90;;;;;;4976228;28;93320;-71
2022/06/04 00:15:58;;;;;;;11.35;6.88;;;13.00;99.90;;;;;;4977694;28;92364;-71
2022/06/04 00:18:26;;;;;;;12.57;7.63;;;13.00;99.90;;;;;;4992611;28;95621;-71
2022/06/04 00:20:55;;;;;;;12.82;8.50;;;13.00;99.90;;;;;;4977354;28;93117;-71
2022/06/04 00:23:22;;;;;;;16.15;7.68;;;13.00;99.90;;;;;;4977435;28;92931;-71
2022/06/04 00:25:52;;;;;;;14.65;7.97;;;13.00;99.90;;;;;;4977273;28;92518;-71
2022/06/04 00:28:21;;;;;;;12.18;7.90;;;12.90;99.90;;;;;;4976749;28;93104;-71
2022/06/04 00:30:50;;;;;;;11.98;7.95;;;12.90;99.90;;;;;;4977416;28;91958;-71
2022/06/04 00:33:17;;;;;;;12.23;8.60;;;12.90;99.90;;;;;;4977249;28;93214;-71
2022/06/04 00:35:47;;;;;;;13.10;7.60;;;12.90;99.90;;;;;;4975697;28;93030;-71
2022/06/04 00:38:16;;;;;;;15.32;8.70;;;12.90;99.90;;;;;;4974611;28;95743;-71
2022/06/04 00:40:55;;;;;;;12.40;9.55;;;12.90;99.90;;;;;;4991787;28;98326;-71
2022/06/04 00:43:22;;;;;;;12.95;8.50;;;12.90;99.90;;;;;;4975941;28;92583;-71
2022/06/04 00:46:14;;;;;;;15.25;8.80;;;12.80;99.90;;;;;;4976790;28;98343;-71
2022/06/04 00:48:41;;;;;;;15.60;9.35;;;12.90;99.90;;;;;;4976294;28;92481;-71
2022/06/04 00:51:08;;;;;;;12.27;8.90;;;12.80;99.90;;;;;;4976133;28;102969;-71
2022/06/04 00:53:36;;;;;;;13.02;9.25;;;12.80;99.90;;;;;;4975320;28;92479;-71
2022/06/04 00:56:16;;;;;;;13.90;9.02;;;12.80;99.90;;;;;;4960117;28;91793;-71
2022/06/04 00:59:15;;;;;;;11.32;8.80;;;12.80;99.90;;;;;;4975295;28;93410;-71
2022/06/04 01:02:01;;;;;;;17.35;9.13;;;12.80;99.90;;;;;;4974659;28;94262;-71
2022/06/04 01:04:49;;;;;;;14.50;9.38;;;12.70;99.90;;;;;;4975370;28;94886;-71
2022/06/04 01:07:38;;;;;;;15.05;8.90;;;12.70;99.90;;;;;;4991987;28;92509;-71
2022/06/04 01:10:39;;;;;;;12.70;9.23;;;12.70;99.90;;;;;;4991515;28;95867;-71
2022/06/04 01:13:40;;;;;;;15.95;8.82;;;12.70;99.90;;;;;;4976796;28;92773;-71
2022/06/04 01:16:41;;;;;;;15.52;8.85;;;12.60;99.90;;;;;;4975511;28;92511;-71
2022/06/04 01:19:08;;;;;;;17.98;8.88;;;12.60;99.90;;;;;;4975501;28;92373;-71
2022/06/04 01:21:52;;;;;;;15.32;10.02;;;12.60;99.90;;;;;;4975028;28;94353;-71
2022/06/04 01:24:35;;;;;;;12.05;9.45;;;12.60;99.90;;;;;;4991093;28;95569;-71
2022/06/04 01:27:04;;;;;;;15.30;9.52;;;12.70;99.90;;;;;;4976469;28;92364;-71
2022/06/04 01:30:03;;;;;;;16.75;10.05;;;12.60;99.90;;;;;;4974872;28;92573;-71
2022/06/04 01:32:40;;;;;;;14.80;10.18;;;12.60;99.90;;;;;;4964889;28;99472;-71
2022/06/04 01:35:07;;;;;;;14.35;9.88;;;12.50;99.90;;;;;;4975787;28;95325;-71
2022/06/04 01:37:48;;;;;;;12.82;9.10;;;12.50;99.90;;;;;;4991284;28;95473;-71
2022/06/04 01:43:15;;;;;;;15.43;10.05;;;12.50;99.90;;;;;;4974638;28;94244;-71
2022/06/04 01:45:44;;;;;;;14.63;9.93;;;12.40;99.90;;;;;;4974200;28;93036;-70
2022/06/04 01:48:14;;;;;;;17.52;9.75;;;12.50;99.90;;;;;;4976040;28;92345;-71
2022/06/04 01:50:47;;;;;;;11.90;9.13;;;12.50;99.90;;;;;;4976302;28;91687;-71
2022/06/04 01:53:17;;;;;;;15.05;10.07;;;12.50;99.90;;;;;;4974788;28;93200;-71
2022/06/04 01:55:54;;;;;;;16.60;9.40;;;12.50;99.90;;;;;;4975033;28;92982;-71
2022/06/04 01:58:27;;;;;;;13.68;10.32;;;12.50;99.90;;;;;;4975209;28;95230;-71
2022/06/04 02:00:58;;;;;;;13.02;9.20;;;12.50;99.90;;;;;;4990517;28;92601;-71
2022/06/04 02:03:31;;;;;;;18.00;9.43;;;12.50;99.90;;;;;;4991068;28;95940;-71
2022/06/04 02:06:21;;;;;;;15.57;9.73;;;12.50;99.90;;;;;;4975781;28;93878;-71
2022/06/04 02:09:09;;;;;;;13.40;9.13;;;12.40;99.90;;;;;;4964418;28;92500;-71
2022/06/04 02:11:39;;;;;;;14.45;9.85;;;12.40;99.90;;;;;;4975960;28;92350;-71
2022/06/04 02:14:07;;;;;;;13.82;9.63;;;12.40;99.90;;;;;;4990664;28;95685;-71
2022/06/04 02:16:42;;;;;;;16.17;9.50;;;12.30;99.90;;;;;;4974756;28;93122;-71
2022/06/04 02:19:09;;;;;;;15.50;10.30;;;12.30;99.90;;;;;;4976064;28;92523;-71
2022/06/04 02:21:37;;;;;;;16.70;9.68;;;12.30;99.90;;;;;;4957756;28;92513;-71
2022/06/04 02:24:04;;;;;;;21.13;9.77;;;12.30;99.90;;;;;;4972906;28;95757;-71
2022/06/04 02:26:33;;;;;;;16.65;10.05;;;12.30;99.90;;;;;;4974185;28;97964;-71
2022/06/04 02:29:01;;;;;;;15.35;9.57;;;12.30;99.90;;;;;;4974662;28;92435;-71
2022/06/04 02:31:49;;;;;;;15.52;10.25;;;12.30;99.90;;;;;;4975278;28;101279;-70
2022/06/04 02:34:44;;;;;;;14.82;9.35;;;12.40;99.90;;;;;;4974947;28;96140;-71
2022/06/04 02:37:11;;;;;;;16.55;9.45;;;12.30;99.90;;;;;;4970856;28;93139;-71
2022/06/04 02:39:49;;;;;;;13.40;9.30;;;12.20;99.90;;;;;;4979016;28;92409;-70
2022/06/04 02:42:44;;;;;;;20.77;10.73;;;12.30;99.90;;;;;;4978422;28;91822;-71
2022/06/04 02:45:21;;;;;;;17.75;10.35;;;12.30;99.90;;;;;;4974323;28;93088;-71
2022/06/04 02:47:51;;;;;;;19.63;11.68;;;12.30;99.90;;;;;;4978141;28;92948;-71
2022/06/04 02:50:27;;;;;;;16.63;10.40;;;12.20;99.90;;;;;;4976775;28;94959;-71
2022/06/04 02:52:56;;;;;;;17.88;10.07;;;12.30;99.90;;;;;;4993284;28;92509;-71
2022/06/04 02:55:34;;;;;;;15.27;10.88;;;12.20;99.90;;;;;;4993096;28;94382;-70
2022/06/04 02:58:09;;;;;;;16.83;11.38;;;12.20;99.90;;;;;;4978260;28;93055;-71
2022/06/04 03:00:36;;;;;;;21.27;10.88;;;12.30;99.90;;;;;;4960439;28;93046;-71
2022/06/04 03:03:03;;;;;;;14.07;9.75;;;12.20;99.90;;;;;;4976721;28;92519;-71
2022/06/04 03:05:30;;;;;;;15.10;11.43;;;12.20;99.90;;;;;;4977244;28;95936;-71
2022/06/04 03:08:02;;;;;;;16.83;9.90;;;12.20;99.90;;;;;;4960529;28;95703;-71
2022/06/04 03:10:32;;;;;;;14.75;10.02;;;12.20;99.90;;;;;;4978692;28;92421;-70
2022/06/04 03:12:59;;;;;;;18.42;10.85;;;12.20;99.90;;;;;;4977920;28;92435;-71
2022/06/04 03:15:27;;;;;;;13.40;9.77;;;12.20;99.90;;;;;;4976007;28;106105;-71
2022/06/04 03:17:54;;;;;;;17.27;10.98;;;12.20;99.90;;;;;;4976570;28;100965;-71
2022/06/04 03:20:23;;;;;;;13.43;9.38;;;12.20;99.90;;;;;;4993042;28;92942;-71
2022/06/04 03:22:52;;;;;;;14.50;9.55;;;12.20;99.90;;;;;;4978346;28;92477;-71
2022/06/04 03:25:19;;;;;;;15.82;9.98;;;12.10;99.90;;;;;;4978177;28;93253;-71
2022/06/04 03:27:47;;;;;;;13.55;9.68;;;12.10;99.90;;;;;;4992653;28;93083;-71
2022/06/04 03:30:15;;;;;;;13.15;9.10;;;12.10;99.90;;;;;;4978281;28;92971;-71
2022/06/04 03:32:42;;;;;;;15.18;9.98;;;12.10;99.90;;;;;;4977404;28;92019;-71
2022/06/04 03:35:09;;;;;;;17.00;8.85;;;12.00;99.90;;;;;;4977507;28;93274;-71
2022/06/04 03:37:37;;;;;;;11.98;8.75;;;12.10;99.90;;;;;;4992981;28;94852;-71
2022/06/04 03:40:05;;;;;;;15.48;9.13;;;12.10;99.90;;;;;;4976778;28;94744;-70
2022/06/04 03:42:31;;;;;;;13.52;8.80;;;12.10;99.90;;;;;;4978134;28;92450;-71
2022/06/04 03:44:58;;;;;;;13.27;8.82;;;12.10;99.90;;;;;;4977829;28;93382;-71
2022/06/04 03:47:26;;;;;;;12.07;8.60;;;12.10;99.90;;;;;;4976585;28;93138;-71
2022/06/04 03:49:54;;;;;;;11.43;7.93;;;12.10;99.90;;;;;;4992908;28;92496;-71
2022/06/04 03:52:21;;;;;;;12.38;7.43;;;12.20;99.90;;;;;;4976366;28;92418;-71
2022/06/04 03:54:54;;;;;;;11.38;6.90;;;12.40;99.90;;;;;;4976182;28;95896;-71
2022/06/04 03:57:48;;;;;;;12.70;7.28;;;12.90;99.90;;;;;;4961603;28;93056;-71
2022/06/04 04:00:24;;;;;;;8.75;6.50;;;13.40;99.90;;;;;;4978125;28;92450;-71
2022/06/04 04:02:56;;;;;;;10.77;5.80;;;14.10;99.90;;;;;;4976504;28;92530;-71
2022/06/04 04:05:27;;;;;;;7.55;6.53;;;14.50;99.90;;;;;;4975349;28;95760;-71
2022/06/04 04:07:55;;;;;;;10.95;6.55;;;14.90;99.90;;;;;;4959649;28;97852;-71
2022/06/04 04:10:23;;;;;;;8.77;5.60;;;15.10;99.90;;;;;;4976640;28;93345;-71
2022/06/04 04:12:50;;;;;;;7.97;5.70;;;15.20;99.60;;;;;;4976538;28;92441;-71
2022/06/04 04:15:18;;;;;;;9.48;6.00;;;15.00;99.50;;;;;;4977594;28;94063;-71
2022/06/04 04:17:46;;;;;;;7.55;6.57;;;14.80;99.80;;;;;;4992106;28;108916;-71
2022/06/04 04:20:25;;;;;;;10.55;6.22;;;14.60;99.90;;;;;;4992661;28;92433;-71
2022/06/04 04:22:53;;;;;;;9.60;6.15;;;14.50;99.90;;;;;;4976698;28;91741;-71
2022/06/04 04:25:23;;;;;;;9.38;6.00;;;14.30;99.90;;;;;;4977168;28;95353;-71
2022/06/04 04:27:50;;;;;;;6.57;5.82;;;14.20;99.90;;;;;;4977263;28;93015;-71
2022/06/04 04:30:21;;;;;;;7.70;5.63;;;14.10;99.90;;;;;;4974603;28;95507;-71
2022/06/04 04:32:51;;;;;;;11.20;6.47;;;14.00;99.90;;;;;;4992802;28;92921;-71
2022/06/04 04:35:25;;;;;;;10.98;6.32;;;14.00;99.90;;;;;;4991838;28;101693;-71
2022/06/04 04:37:54;;;;;;;7.80;6.63;;;13.90;99.90;;;;;;4976010;28;93049;-71
2022/06/04 04:40:23;;;;;;;7.88;6.13;;;13.90;99.90;;;;;;4977555;28;92565;-71
2022/06/04 04:42:51;;;;;;;7.88;5.97;;;13.90;99.90;;;;;;4977115;28;92410;-71
2022/06/04 04:45:19;;;;;;;7.00;5.88;;;13.90;99.90;;;;;;4975526;28;95703;-71
2022/06/04 04:47:47;;;;;;;10.68;5.95;;;13.90;99.90;;;;;;4977211;28;92985;-71
2022/06/04 04:50:17;;;;;;;7.78;5.68;;;13.90;99.90;;;;;;4976865;28;92424;-71
2022/06/04 04:52:44;;;;;;;9.43;5.43;;;13.90;99.90;;;;;;4976644;28;92489;-71
2022/06/04 04:55:12;;;;;;;9.98;6.32;;;13.90;99.90;;;;;;4974215;28;95667;-71
2022/06/04 04:57:39;;;;;;;6.90;5.30;;;14.00;99.90;;;;;;4975413;28;95467;-71
2022/06/04 05:00:08;;;;;;;6.78;5.07;;;14.10;99.90;;;;;;4958525;28;92353;-71
2022/06/04 05:02:36;;;;;;;9.95;5.93;;;14.20;99.90;;;;;;4975410;28;92720;-71
2022/06/04 05:05:04;;;;;;;10.68;5.85;;;14.20;99.90;;;;;;4976330;28;93234;-71
2022/06/04 05:07:32;;;;;;;7.93;6.10;;;14.20;99.90;;;;;;4975150;28;93036;-71
2022/06/04 05:09:59;;;;;;;9.75;5.68;;;14.40;99.90;;;;;;4959075;28;92527;-70
2022/06/04 05:12:26;;;;;;;5.93;5.32;;;14.50;99.90;;;;;;4977287;28;91857;-71
2022/06/04 05:14:53;;;;;;;6.60;5.70;;;14.80;99.90;;;;;;4976614;28;92350;-71
2022/06/04 05:17:20;;;;;;;6.35;4.68;;;14.80;99.90;;;;;;4976418;28;93007;-71
2022/06/04 05:19:51;;;;;;;5.65;5.00;;;14.90;99.90;;;;;;4975783;28;94869;-71
2022/06/04 05:22:18;;;;;;;6.35;4.85;;;15.00;99.80;;;;;;4991379;28;92536;-71
2022/06/04 05:24:45;;;;;;;6.45;5.53;;;15.00;99.70;;;;;;4974995;28;94397;-71
2022/06/04 05:27:12;;;;;;;5.85;5.13;;;15.00;99.80;;;;;;4976354;28;93192;-71
2022/06/04 05:29:39;;;;;;;7.13;5.93;;;15.00;99.50;;;;;;4975171;28;92521;-71
2022/06/04 05:32:09;;;;;;;5.90;5.00;;;15.00;99.50;;;;;;4976232;28;92416;-71
2022/06/04 05:34:37;;;;;;;6.68;4.80;;;15.00;99.50;;;;;;4976268;28;94184;-71
2022/06/04 05:37:05;;;;;;;6.68;5.15;;;14.90;99.40;;;;;;4976301;28;92987;-71
2022/06/04 05:39:32;;;;;;;6.47;5.43;;;15.00;99.50;;;;;;4974978;28;92473;-71
2022/06/04 05:42:00;;;;;;;5.85;4.93;;;15.10;99.40;;;;;;4976465;28;92993;-71
2022/06/04 05:44:28;;;;;;;6.28;5.00;;;15.30;99.10;;;;;;4973167;28;98235;-71
2022/06/04 05:46:56;;;;;;;7.80;5.57;;;15.40;98.80;;;;;;4976035;28;95452;-71
2022/06/04 05:49:23;;;;;;;6.28;4.88;;;15.50;98.70;;;;;;4975703;28;92524;-71
2022/06/04 05:51:51;;;;;;;6.10;5.07;;;15.40;98.60;;;;;;4990652;28;99610;-71
2022/06/04 05:54:19;;;;;;;7.05;5.30;;;15.50;98.70;;;;;;4958348;28;95772;-71
2022/06/04 05:56:49;;;;;;;6.60;5.78;;;15.60;98.70;;;;;;4974676;28;94533;-71
2022/06/04 05:59:19;;;;;;;9.10;5.00;;;15.50;98.70;;;;;;4974524;28;92555;-71
2022/06/04 06:01:47;;;;;;;6.85;5.32;;;15.40;98.50;;;;;;4976354;28;92251;-71
2022/06/04 06:04:16;;;;;;;6.50;5.90;;;15.50;98.80;;;;;;4975556;28;93645;-71
2022/06/04 06:06:49;;;;;;;8.18;7.38;;;15.70;98.60;;;;;;4975841;28;93140;-71
2022/06/04 06:09:18;;;;;;;6.00;5.00;;;16.00;98.10;;;;;;4956945;28;94833;-71
2022/06/04 06:11:46;;;;;;;7.63;5.32;;;16.10;97.90;;;;;;4974848;28;92447;-71
2022/06/04 06:14:12;;;;;;;5.90;4.82;;;16.20;97.80;;;;;;4990710;28;94258;-71
2022/06/04 06:16:43;;;;;;;6.93;5.97;;;16.30;97.60;;;;;;4974229;28;92942;-71
2022/06/04 06:19:11;;;;;;;5.95;5.35;;;16.40;97.50;;;;;;4974866;28;92586;-71
2022/06/04 06:21:38;;;;;;;7.22;5.40;;;16.50;97.40;;;;;;4974493;28;92440;-71
2022/06/04 06:24:08;;;;;;;7.05;6.32;;;16.40;97.10;;;;;;4958338;28;93348;-71
2022/06/04 06:26:41;;;;;;;6.60;5.22;;;16.40;97.20;;;;;;4975619;28;93050;-71
2022/06/04 06:29:08;;;;;;;;;;;16.30;97.20;;;;;;4976159;28;92520;-71
2022/06/04 06:31:36;;;;;;;8.05;5.22;;;16.10;97.50;;;;;;4976949;28;92869;-71
2022/06/04 06:34:03;;;;;;;6.00;5.40;;;16.10;97.70;;;;;;4972955;28;95772;-71
2022/06/04 06:36:30;;;;;;;8.43;6.00;;;16.20;97.50;;;;;;4957606;28;95476;-71
2022/06/04 06:38:57;;;;;;;10.80;5.55;;;16.30;97.40;;;;;;4974068;28;99122;-71
2022/06/04 06:41:25;;;;;;;7.60;5.35;;;16.30;97.60;;;;;;4975281;28;92471;-71
2022/06/04 06:43:53;;;;;;;9.82;6.18;;;16.40;97.40;;;;;;4975420;28;93273;-71
2022/06/04 06:46:27;;;;;;;7.07;6.45;;;16.50;97.30;;;;;;4974113;28;93019;-71
2022/06/04 06:49:22;;;;;;;7.97;6.05;;;16.50;97.10;;;;;;4974119;28;92504;-71
2022/06/04 06:52:02;;;;;;;7.95;5.90;;;16.60;97.20;;;;;;4975685;28;91631;-71
2022/06/04 06:54:32;;;;;;;6.57;5.65;;;16.70;96.90;;;;;;4974989;28;97956;-71
2022/06/04 06:56:59;;;;;;;7.60;6.90;;;16.80;96.80;;;;;;4973931;28;95551;-71
2022/06/04 06:59:28;;;;;;;7.03;6.32;;;16.80;96.70;;;;;;4974049;28;94873;-71
2022/06/04 07:01:57;;;;;;;7.55;6.57;;;16.80;96.60;;;;;;4975521;28;92863;-71
2022/06/04 07:04:25;;;;;;;6.85;6.15;;;16.90;96.50;;;;;;4941333;28;95766;-71
2022/06/04 07:06:57;;;;;;;9.20;6.32;;;16.90;96.20;;;;;;4975182;28;92922;-71
2022/06/04 07:09:33;;;;;;;7.63;5.68;;;17.00;96.20;;;;;;4974098;28;92481;-71
2022/06/04 07:12:01;;;;;;;7.30;5.53;;;17.00;96.20;;;;;;4973861;28;92538;-71
2022/06/04 07:14:28;;;;;;;6.15;4.97;;;17.00;96.10;;;;;;4975017;28;93266;-71
2022/06/04 07:16:59;;;;;;;7.32;6.53;;;17.00;96.20;;;;;;4974241;28;92911;-71
2022/06/04 07:19:27;;;;;;;6.68;5.88;;;17.10;96.00;;;;;;4974980;28;92462;-71
2022/06/04 07:21:55;;;;;;;7.78;6.05;;;17.10;96.00;;;;;;4975666;28;92541;-71
2022/06/04 07:24:23;;;;;;;5.82;5.32;;;17.10;96.10;;;;;;4976951;28;95370;-71
2022/06/04 07:26:50;;;;;;;7.18;6.25;;;17.10;96.10;;;;;;4976937;28;95426;-71
2022/06/04 07:29:18;;;;;;;6.97;6.03;;;17.10;96.10;;;;;;4978353;28;92487;-71
2022/06/04 07:31:45;;;;;;;7.18;5.53;;;17.10;96.20;;;;;;4977021;28;92597;-71
2022/06/04 07:34:12;;;;;;;7.70;6.68;;;17.20;96.10;;;;;;4977703;28;105228;-71
2022/06/04 07:36:45;;;;;;;7.85;5.78;;;17.30;95.70;;;;;;4976717;28;93054;-71
2022/06/04 07:39:17;;;;;;;6.25;4.88;;;17.40;96.00;;;;;;4978565;28;92385;-71
2022/06/04 07:41:52;;;;;;;6.00;5.50;;;17.40;95.50;;;;;;4977268;28;91742;-71
2022/06/04 07:44:20;;;;;;;6.80;6.13;;;17.60;95.40;;;;;;4977875;28;93161;-72
2022/06/04 07:46:48;;;;;;;6.32;5.72;;;17.70;95.10;;;;;;4960714;28;96043;-72
2022/06/04 07:49:15;;;;;;;7.85;6.47;;;17.90;94.70;;;;;;4976869;28;94949;-72
2022/06/04 07:51:45;;;;;;;5.93;5.10;;;17.90;94.30;;;;;;4976460;28;92673;-72
2022/06/04 07:54:14;;;;;;;7.28;6.53;;;17.90;94.40;;;;;;4977934;28;92978;-71
2022/06/04 07:56:41;;;;;;;6.72;5.82;;;17.90;94.10;;;;;;4977414;28;92843;-72
2022/06/04 07:59:11;;;;;;;7.50;6.82;;;17.90;94.50;;;;;;4977974;28;92433;-71
2022/06/04 08:01:38;;;;;;;5.32;4.80;;;18.00;94.10;;;;;;4976215;28;93009;-72
2022/06/04 08:04:05;;;;;;;5.22;4.72;;;18.30;93.80;;;;;;4976330;28;93330;-72
2022/06/04 08:06:33;;;;;;;7.10;5.35;;;18.70;93.30;;;;;;4993092;28;95461;-72
2022/06/04 08:09:00;;;;;;;4.88;4.38;;;19.10;92.70;;;;;;4977805;28;92575;-72
2022/06/04 08:11:30;;;;;;;4.97;4.47;;;19.70;92.30;;;;;;4977277;28;92625;-72
2022/06/04 08:14:21;;;;;;;6.28;5.70;;;20.50;90.80;;;;;;4974715;28;95652;-72
2022/06/04 08:16:54;;;;;;;5.88;5.47;;;20.80;87.40;;;;;;4977347;28;95482;-72
2022/06/04 08:19:23;;;;;;;4.90;4.50;;;21.20;86.90;;;;;;4977688;28;92464;-72
2022/06/04 08:21:50;;;;;;;5.32;4.53;;;21.50;85.70;;;;;;4992648;28;92475;-72
2022/06/04 08:24:18;;;;;;;5.25;4.75;;;22.00;84.30;;;;;;4976042;28;93202;-72
2022/06/04 08:26:48;;;;;;;5.07;4.22;;;22.30;81.90;;;;;;4976811;28;92938;-72
2022/06/04 08:29:15;;;;;;;5.05;4.63;;;22.60;80.40;;;;;;4976061;28;92407;-72
2022/06/04 08:31:42;;;;;;;6.22;5.72;;;23.10;78.90;;;;;;4959747;28;91961;-72
2022/06/04 08:34:10;;;;;;;6.07;5.57;;;23.40;77.10;;;;;;4974910;28;93129;-72
2022/06/04 08:36:37;;;;;;;5.07;4.68;;;23.80;75.90;;;;;;4991809;28;95445;-72
2022/06/04 08:39:05;;;;;;;4.00;3.55;;;24.50;74.10;;;;;;4974851;28;95434;-72
2022/06/04 08:41:48;;;;;;;4.68;3.67;;;24.90;71.40;;;;;;4976961;28;92443;-72
2022/06/04 08:44:21;;;;;;;4.25;3.90;;;25.40;67.90;;;;;;4977166;28;93349;-72
2022/06/04 08:46:57;;;;;;;4.55;4.15;;;25.50;67.50;;;;;;4958910;28;95490;-72
2022/06/04 08:49:35;;;;;;;4.18;3.88;;;26.20;66.20;;;;;;4959450;28;92434;-72
2022/06/04 08:52:29;;;;;;;3.92;3.60;;;26.60;63.40;;;;;;4975516;28;92462;-72
2022/06/04 08:57:47;;;;;;;5.88;5.28;;;27.70;61.40;;;;;;4961533;28;97141;-72
2022/06/04 09:00:24;;;;;;;;;;;27.30;59.90;;;;;;4977556;28;92379;-72
2022/06/04 09:03:13;;;;;;;4.32;3.70;;;26.80;59.90;;;;;;4976780;28;92530;-72
2022/06/04 09:05:52;;;;;;;4.45;4.05;;;27.40;59.80;;;;;;4974924;28;95673;-72
2022/06/04 09:08:32;;;;;;;4.10;3.70;;;27.10;59.70;;;;;;4976860;28;95384;-72
2022/06/04 09:11:04;;;;;;;4.35;3.95;;;26.80;60.00;;;;;;4976910;28;92659;-72
2022/06/04 09:13:41;;;;;;;5.25;4.75;;;26.50;61.10;;;;;;4977007;28;92535;-72
2022/06/04 09:16:36;;;;;;;4.53;4.13;;;26.20;62.00;;;;;;4976565;28;93248;-72
2022/06/04 09:19:12;;;;;;;4.82;4.43;;;25.30;62.00;;;;;;4974936;28;92981;-72
2022/06/04 09:21:39;;;;;;;4.82;4.10;;;24.50;63.60;;;;;;4976593;28;92484;-72
2022/06/04 09:24:07;;;;;;;4.72;4.20;;;23.60;65.30;;;;;;4975087;28;99388;-72
2022/06/04 09:27:17;;;;;;;4.75;4.30;;;23.20;66.70;;;;;;4976325;28;93839;-72
2022/06/04 09:30:11;;;;;;;6.80;4.68;;;22.80;68.70;;;;;;4944991;28;96015;-71
2022/06/04 09:33:17;;;;;;;5.40;4.90;;;22.50;70.20;;;;;;4975054;28;94841;-71
2022/06/04 09:35:45;;;;;;;5.22;4.72;;;22.40;71.20;;;;;;4943263;28;92480;-71
2022/06/04 09:38:29;;;;;;;5.70;5.20;;;22.00;72.50;;;;;;4991075;28;102440;-71
2022/06/04 09:41:02;;;;;;;6.53;5.90;;;21.80;73.10;;;;;;4974444;28;93050;-71
2022/06/04 09:43:30;;;;;;;7.13;6.20;;;21.80;74.90;;;;;;4975429;28;92958;-71
2022/06/04 09:46:07;;;;;;;5.43;4.93;;;21.60;74.80;;;;;;4976149;28;93074;-71
2022/06/04 09:48:37;;;;;;;5.13;4.63;;;21.40;74.00;;;;;;4974816;28;93408;-71
2022/06/04 09:51:14;;;;;;;6.65;5.32;;;21.30;75.20;;;;;;4974484;28;96052;-71
2022/06/04 09:53:44;;;;;;;4.78;4.38;;;21.30;74.20;;;;;;4974359;28;92604;-71
2022/06/04 09:56:14;;;;;;;5.93;5.30;;;21.20;73.90;;;;;;4958369;28;92713;-71
2022/06/04 09:58:44;;;;;;;5.00;4.38;;;21.10;75.60;;;;;;4972949;28;98199;-71
2022/06/04 10:01:17;;;;;;;6.32;5.82;;;21.10;74.30;;;;;;4990858;28;96479;-71
2022/06/04 10:03:57;;;;;;;6.03;5.10;;;21.20;74.60;;;;;;4975713;28;92502;-71
2022/06/04 10:06:26;;;;;;;6.25;5.40;;;21.20;75.60;;;;;;4958344;28;92579;-71
2022/06/04 10:11:48;;;;;;;7.65;4.90;;;21.00;74.80;;;;;;4975596;28;92453;-71
2022/06/04 10:14:16;;;;;;;6.82;6.13;;;21.00;75.90;;;;;;4958412;28;92381;-71
2022/06/04 10:16:46;;;;;;;6.03;5.43;;;21.20;77.00;;;;;;4958546;28;91833;-71
2022/06/04 10:19:12;;;;;;;5.93;4.93;;;21.30;77.60;;;;;;4974371;28;94244;-71
2022/06/04 10:21:42;;;;;;;7.55;5.35;;;21.40;76.00;;;;;;4974290;28;93066;-71
2022/06/04 10:24:26;;;;;;;5.53;5.03;;;21.40;76.60;;;;;;4956802;28;95022;-71
2022/06/04 10:27:15;;;;;;;5.15;4.57;;;21.50;77.70;;;;;;4975713;28;93338;-71
2022/06/04 10:30:17;;;;;;;6.97;4.35;;;21.50;77.70;;;;;;4975778;28;93351;-71
2022/06/04 10:33:03;;;;;;;4.70;4.22;;;21.60;78.40;;;;;;4974296;28;93152;-71
2022/06/04 10:35:54;;;;;;;4.20;3.80;;;21.60;77.80;;;;;;4974310;28;92529;-71
2022/06/04 10:38:49;;;;;;;5.35;4.20;;;21.50;75.00;;;;;;4974632;28;92895;-71
2022/06/04 10:42:02;;;;;;;5.18;4.68;;;21.40;75.90;;;;;;4964098;28;93155;-71
2022/06/04 10:45:05;;;;;;;6.07;5.50;;;21.70;76.40;;;;;;4954828;28;92990;-71
2022/06/04 10:47:34;;;;;;;6.85;4.45;;;21.80;76.70;;;;;;4974602;28;92550;-71
2022/06/04 10:50:12;;;;;;;5.95;5.35;;;21.90;74.50;;;;;;4974938;28;92541;-71
2022/06/04 10:52:43;;;;;;;6.72;4.47;;;22.30;74.20;;;;;;4973737;28;95724;-72
2022/06/04 10:55:10;;;;;;;4.15;3.85;;;22.40;72.70;;;;;;4975039;28;95285;-71
2022/06/04 10:58:14;;;;;;;5.35;3.88;;;22.60;71.70;;;;;;4977242;28;92419;-71
2022/06/04 11:00:50;;;;;;;4.97;4.05;;;22.80;70.60;;;;;;4979045;28;92345;-71
2022/06/04 11:03:25;;;;;;;5.38;4.43;;;22.80;71.90;;;;;;4993905;28;95342;-71
2022/06/04 11:06:24;;;;;;;4.35;3.97;;;22.70;70.60;;;;;;4978575;28;93261;-71
2022/06/04 11:09:03;;;;;;;4.05;3.30;;;22.50;70.70;;;;;;4977502;28;93165;-71
2022/06/04 11:11:38;;;;;;;4.00;3.60;;;22.50;69.10;;;;;;4979042;28;91627;-71
2022/06/04 11:14:13;;;;;;;5.50;4.00;;;22.60;70.60;;;;;;4978389;28;93205;-72
2022/06/04 11:16:59;;;;;;;4.97;4.50;;;22.60;72.60;;;;;;4993723;28;95637;-71
2022/06/04 11:19:38;;;;;;;4.57;4.13;;;22.60;72.00;;;;;;4977574;28;94756;-72
2022/06/04 11:22:21;;;;;;;5.00;3.45;;;22.70;71.20;;;;;;4978657;28;92448;-71
2022/06/04 11:24:56;;;;;;;5.18;3.80;;;22.70;71.20;;;;;;4978605;28;92350;-71
2022/06/04 11:27:29;;;;;;;4.03;3.72;;;22.70;71.70;;;;;;4960269;28;95663;-72
2022/06/04 11:29:57;;;;;;;3.55;3.25;;;22.70;71.30;;;;;;4978435;28;92353;-71
2022/06/04 11:32:42;;;;;;;5.13;4.70;;;22.70;71.20;;;;;;4960558;28;92573;-71
2022/06/04 11:35:24;;;;;;;4.88;4.50;;;22.70;71.20;;;;;;4978247;28;93419;-71
2022/06/04 11:38:00;;;;;;;5.43;4.68;;;22.70;71.30;;;;;;4977166;28;92969;-71
2022/06/04 11:40:46;;;;;;;4.85;4.35;;;22.70;71.10;;;;;;4960756;28;92422;-71
2022/06/04 11:43:29;;;;;;;5.07;3.35;;;22.80;71.20;;;;;;4993071;28;95210;-71
2022/06/04 11:45:56;;;;;;;5.25;4.85;;;22.80;72.30;;;;;;4975523;28;95709;-71
2022/06/04 11:48:29;;;;;;;3.75;3.45;;;22.70;71.00;;;;;;4976693;28;95354;-71
2022/06/04 11:51:11;;;;;;;3.55;3.28;;;22.80;71.20;;;;;;4960147;28;92447;-71
2022/06/04 11:53:57;;;;;;;4.20;3.80;;;22.90;70.60;;;;;;4977616;28;92444;-71
2022/06/04 11:57:07;;;;;;;3.83;3.20;;;22.80;70.50;;;;;;4978000;28;93585;-71
2022/06/04 11:59:43;;;;;;;5.43;3.85;;;23.00;70.10;;;;;;4992955;28;94075;-71
2022/06/04 12:02:30;;;;;;;4.07;3.05;;;23.00;70.80;;;;;;4977895;28;92476;-71
2022/06/04 12:05:24;;;;;;;6.10;3.47;;;23.10;69.10;;;;;;4976956;28;91814;-72
2022/06/04 12:07:54;;;;;;;3.70;3.35;;;22.80;68.10;;;;;;4976199;28;93381;-71
2022/06/04 12:10:47;;;;;;;4.32;3.92;;;22.70;68.40;;;;;;4975145;28;93056;-71
2022/06/04 12:13:39;;;;;;;3.30;3.00;;;22.80;68.20;;;;;;4991773;28;95837;-71
2022/06/04 12:16:12;;;;;;;3.65;2.97;;;22.80;68.20;;;;;;4992762;28;92892;-71
2022/06/04 12:18:48;;;;;;;3.47;3.27;;;22.70;68.70;;;;;;4977592;28;93183;-72
2022/06/04 12:24:40;;;;;;;5.22;2.80;;;22.60;66.80;;;;;;4976047;28;93010;-71
2022/06/04 12:27:24;;;;;;;7.22;4.13;;;22.80;67.50;;;;;;4977413;28;92473;-71
2022/06/04 12:29:54;;;;;;;4.60;4.30;;;22.90;68.50;;;;;;4977259;28;92949;-71
2022/06/04 12:32:29;;;;;;;2.97;2.72;;;22.90;68.30;;;;;;4977150;28;91877;-72
2022/06/04 12:35:11;;;;;;;3.20;3.00;;;23.00;67.20;;;;;;4977430;28;92389;-71
2022/06/04 12:37:44;;;;;;;5.43;3.10;;;23.20;67.30;;;;;;4977521;28;93021;-72
2022/06/04 12:40:22;;;;;;;3.75;3.45;;;23.20;67.30;;;;;;4975923;28;95758;-71
2022/06/04 12:43:14;;;;;;;4.63;2.78;;;23.40;67.50;;;;;;4976558;28;95369;-71
2022/06/04 12:45:48;;;;;;;3.90;2.80;;;23.50;67.90;;;;;;4977416;28;93043;-71
2022/06/04 12:48:36;;;;;;;3.83;3.08;;;23.40;68.80;;;;;;4959159;28;92489;-72
2022/06/04 12:51:09;;;;;;;4.82;4.50;;;23.60;68.60;;;;;;4991949;28;96138;-71
2022/06/04 12:53:51;;;;;;;;;;;23.60;69.20;;;;;;4977081;28;93053;-71
2022/06/04 12:56:27;;;;;;;3.28;2.88;;;23.50;68.70;;;;;;4976540;28;92523;-72
2022/06/04 12:58:58;;;;;;;3.40;2.95;;;23.60;67.20;;;;;;4976315;28;91766;-71
2022/06/04 13:01:34;;;;;;;3.70;3.05;;;23.60;67.70;;;;;;4975205;28;96318;-71
2022/06/04 13:04:10;;;;;;;3.38;3.00;;;23.80;68.70;;;;;;4991828;28;95621;-72
2022/06/04 13:07:14;;;;;;;3.72;3.42;;;23.90;67.10;;;;;;4991176;28;95315;-71
2022/06/04 13:09:50;;;;;;;3.40;3.10;;;24.00;66.90;;;;;;4915990;28;92490;-71
2022/06/04 13:12:36;;;;;;;5.10;3.60;;;24.10;67.60;;;;;;4968030;28;93264;-71
2022/06/04 13:15:20;;;;;;;4.03;3.55;;;24.10;67.60;;;;;;4976636;28;92851;-71
2022/06/04 13:17:49;;;;;;;4.32;3.90;;;24.40;68.80;;;;;;4975323;28;92541;-72
2022/06/04 13:20:46;;;;;;;3.30;3.00;;;24.30;66.90;;;;;;4963947;28;92655;-72
2022/06/04 13:23:44;;;;;;;3.38;2.90;;;24.40;66.50;;;;;;4975285;28;92671;-72
2022/06/04 13:26:42;;;;;;;3.42;3.13;;;24.50;67.10;;;;;;4976663;28;92925;-72
2022/06/04 13:29:28;;;;;;;3.35;3.03;;;24.40;66.60;;;;;;4976600;28;92520;-72
2022/06/04 13:32:15;;;;;;;4.93;3.67;;;24.50;66.30;;;;;;4976648;28;92488;-72
2022/06/04 13:34:44;;;;;;;4.60;4.20;;;24.50;65.10;;;;;;4973507;28;95845;-72
2022/06/04 13:37:35;;;;;;;3.63;3.20;;;24.50;65.60;;;;;;4974564;28;97947;-72